createdAt,value
2023-02-07T00:00:16.782Z,-2.22
2023-02-07T00:01:17.308Z,-2.23
2023-02-07T00:02:17.123Z,-2.22
2023-02-07T00:03:16.715Z,-2.22
2023-02-07T00:04:17.301Z,-2.23
2023-02-07T00:05:16.809Z,-2.23
2023-02-07T00:06:16.333Z,-2.26
2023-02-07T00:07:16.840Z,-2.25
2023-02-07T00:08:16.347Z,-2.29
2023-02-07T00:09:16.856Z,-2.31
2023-02-07T00:10:16.399Z,-2.34
2023-02-07T00:11:16.913Z,-2.35
2023-02-07T00:12:16.329Z,-2.35
2023-02-07T00:13:16.800Z,-2.38
2023-02-07T00:14:17.325Z,-2.39
2023-02-07T00:15:16.817Z,-2.41
2023-02-07T00:16:16.333Z,-2.39
2023-02-07T00:17:16.871Z,-2.42
2023-02-07T00:18:16.427Z,-2.41
2023-02-07T00:19:16.927Z,-2.45
2023-02-07T00:20:16.473Z,-2.46
2023-02-07T00:21:16.984Z,-2.45
2023-02-07T00:22:16.575Z,-2.46
2023-02-07T00:23:17.156Z,-2.46
2023-02-07T00:24:16.713Z,-2.52
2023-02-07T00:25:17.242Z,-2.52
2023-02-07T00:26:16.778Z,-2.52
2023-02-07T00:27:16.466Z,-2.48
2023-02-07T00:28:17.219Z,-2.52
2023-02-07T00:29:16.912Z,-2.53
2023-02-07T00:30:16.468Z,-2.46
2023-02-07T00:31:17.088Z,-2.48
2023-02-07T00:32:16.613Z,-2.50
2023-02-07T00:33:17.109Z,-2.50
2023-02-07T00:34:16.637Z,-2.54
2023-02-07T00:35:17.150Z,-2.56
2023-02-07T00:36:16.717Z,-2.56
2023-02-07T00:37:17.208Z,-2.57
2023-02-07T00:38:16.728Z,-2.62
2023-02-07T00:39:17.228Z,-2.62
2023-02-07T00:40:16.728Z,-2.62
2023-02-07T00:41:17.238Z,-2.63
2023-02-07T00:42:16.666Z,-2.63
2023-02-07T00:43:28.945Z,-2.67
2023-02-07T00:44:16.573Z,-2.66
2023-02-07T00:45:17.084Z,-2.67
2023-02-07T00:46:16.680Z,-2.69
2023-02-07T00:47:16.344Z,-2.73
2023-02-07T00:48:16.836Z,-2.69
2023-02-07T00:49:16.328Z,-2.70
2023-02-07T00:50:16.859Z,-2.69
2023-02-07T00:51:16.358Z,-2.71
2023-02-07T00:52:16.797Z,-2.73
2023-02-07T00:53:17.358Z,-2.74
2023-02-07T00:54:17.044Z,-2.73
2023-02-07T00:55:16.774Z,-2.78
2023-02-07T00:56:16.517Z,-2.77
2023-02-07T00:57:17.354Z,-2.81
2023-02-07T00:58:17.105Z,-2.82
2023-02-07T00:59:16.939Z,-2.81
2023-02-07T01:00:16.924Z,-2.81
2023-02-07T01:01:16.870Z,-2.85
2023-02-07T01:02:16.548Z,-2.90
2023-02-07T01:03:17.242Z,-2.88
2023-02-07T01:04:16.961Z,-2.91
2023-02-07T01:05:16.755Z,-2.90
2023-02-07T01:06:16.357Z,-2.92
2023-02-07T01:07:16.850Z,-2.92
2023-02-07T01:08:16.379Z,-2.95
2023-02-07T01:09:16.875Z,-2.97
2023-02-07T01:10:16.366Z,-2.97
2023-02-07T01:11:16.848Z,-2.98
2023-02-07T01:12:16.312Z,-3.01
2023-02-07T01:13:16.838Z,-3.01
2023-02-07T01:14:16.324Z,-2.99
2023-02-07T01:15:16.801Z,-3.01
2023-02-07T01:16:17.422Z,-2.99
2023-02-07T01:17:16.947Z,-3.02
2023-02-07T01:18:16.431Z,-3.02
2023-02-07T01:19:16.950Z,-3.02
2023-02-07T01:20:16.440Z,-3.02
2023-02-07T01:21:17.002Z,-3.04
2023-02-07T01:22:16.768Z,-3.01
2023-02-07T01:23:17.263Z,-2.99
2023-02-07T01:24:16.744Z,-3.01
2023-02-07T01:25:17.217Z,-3.04
2023-02-07T01:26:16.705Z,-3.04
2023-02-07T01:27:17.226Z,-3.08
2023-02-07T01:28:16.763Z,-3.07
2023-02-07T01:29:16.342Z,-3.09
2023-02-07T01:30:16.846Z,-3.12
2023-02-07T01:31:16.490Z,-3.11
2023-02-07T01:32:16.977Z,-3.12
2023-02-07T01:33:16.454Z,-3.16
2023-02-07T01:34:16.970Z,-3.16
2023-02-07T01:35:16.467Z,-3.19
2023-02-07T01:36:16.991Z,-3.20
2023-02-07T01:37:16.489Z,-3.20
2023-02-07T01:38:16.959Z,-3.22
2023-02-07T01:39:16.465Z,-3.22
2023-02-07T01:40:16.981Z,-3.25
2023-02-07T01:41:16.459Z,-3.25
2023-02-07T01:42:17.163Z,-3.27
2023-02-07T01:43:16.665Z,-3.29
2023-02-07T01:44:17.168Z,-3.30
2023-02-07T01:45:16.693Z,-3.30
2023-02-07T01:46:17.244Z,-3.33
2023-02-07T01:47:16.774Z,-3.30
2023-02-07T01:48:17.283Z,-3.30
2023-02-07T01:49:16.795Z,-3.33
2023-02-07T01:50:17.287Z,-3.35
2023-02-07T01:51:16.764Z,-3.33
2023-02-07T01:52:16.868Z,-3.36
2023-02-07T01:53:16.369Z,-3.39
2023-02-07T01:54:16.860Z,-3.37
2023-02-07T01:55:16.385Z,-3.37
2023-02-07T01:56:29.617Z,-3.43
2023-02-07T01:57:16.448Z,-3.43
2023-02-07T01:58:16.948Z,-3.44
2023-02-07T01:59:16.433Z,-3.43
2023-02-07T02:00:16.918Z,-3.46
2023-02-07T02:01:16.426Z,-3.47
2023-02-07T02:02:16.815Z,-3.47
2023-02-07T02:03:16.332Z,-3.44
2023-02-07T02:04:16.814Z,-3.43
2023-02-07T02:05:17.305Z,-3.46
2023-02-07T02:06:16.804Z,-3.48
2023-02-07T02:07:16.312Z,-3.47
2023-02-07T02:08:16.801Z,-3.50
2023-02-07T02:09:17.300Z,-3.48
2023-02-07T02:10:16.808Z,-3.48
2023-02-07T02:11:17.321Z,-3.51
2023-02-07T02:12:17.098Z,-3.50
2023-02-07T02:13:16.576Z,-3.51
2023-02-07T02:14:17.074Z,-3.53
2023-02-07T02:15:16.581Z,-3.53
2023-02-07T02:16:17.061Z,-3.55
2023-02-07T02:17:16.639Z,-3.55
2023-02-07T02:18:17.125Z,-3.61
2023-02-07T02:19:16.632Z,-3.57
2023-02-07T02:20:17.157Z,-3.55
2023-02-07T02:21:16.649Z,-3.60
2023-02-07T02:22:17.132Z,-3.61
2023-02-07T02:23:16.635Z,-3.60
2023-02-07T02:24:17.125Z,-3.58
2023-02-07T02:25:16.614Z,-3.60
2023-02-07T02:26:17.094Z,-3.60
2023-02-07T02:27:16.590Z,-3.60
2023-02-07T02:28:17.127Z,-3.60
2023-02-07T02:29:16.744Z,-3.60
2023-02-07T02:30:17.236Z,-3.63
2023-02-07T02:31:16.764Z,-3.64
2023-02-07T02:32:17.227Z,-3.68
2023-02-07T02:33:16.709Z,-3.68
2023-02-07T02:34:17.215Z,-3.72
2023-02-07T02:35:16.702Z,-3.71
2023-02-07T02:36:17.223Z,-3.72
2023-02-07T02:37:16.692Z,-3.72
2023-02-07T02:38:17.168Z,-3.75
2023-02-07T02:39:16.639Z,-3.75
2023-02-07T02:40:17.111Z,-3.77
2023-02-07T02:41:16.586Z,-3.78
2023-02-07T02:42:17.027Z,-3.80
2023-02-07T02:43:16.578Z,-3.81
2023-02-07T02:44:17.104Z,-3.81
2023-02-07T02:45:16.597Z,-3.82
2023-02-07T02:46:17.140Z,-3.82
2023-02-07T02:47:16.667Z,-3.84
2023-02-07T02:48:17.159Z,-3.84
2023-02-07T02:49:16.698Z,-3.85
2023-02-07T02:50:17.234Z,-3.85
2023-02-07T02:51:16.717Z,-3.88
2023-02-07T02:52:17.254Z,-3.87
2023-02-07T02:53:16.749Z,-3.88
2023-02-07T02:54:17.272Z,-3.84
2023-02-07T02:55:16.780Z,-3.85
2023-02-07T02:56:16.386Z,-3.88
2023-02-07T02:57:16.883Z,-3.87
2023-02-07T02:58:16.381Z,-3.89
2023-02-07T02:59:16.872Z,-3.89
2023-02-07T03:00:16.376Z,-3.91
2023-02-07T03:01:16.880Z,-3.94
2023-02-07T03:02:16.311Z,-3.94
2023-02-07T03:03:16.818Z,-3.92
2023-02-07T03:04:16.316Z,-3.91
2023-02-07T03:05:16.861Z,-3.92
2023-02-07T03:06:16.524Z,-3.92
2023-02-07T03:07:17.057Z,-3.92
2023-02-07T03:08:16.560Z,-3.91
2023-02-07T03:09:17.050Z,-3.84
2023-02-07T03:10:16.561Z,-3.77
2023-02-07T03:11:17.056Z,-3.75
2023-02-07T03:12:16.609Z,-3.71
2023-02-07T03:13:17.112Z,-3.67
2023-02-07T03:14:16.596Z,-3.64
2023-02-07T03:15:17.080Z,-3.70
2023-02-07T03:16:16.621Z,-3.68
2023-02-07T03:17:17.197Z,-3.77
2023-02-07T03:18:16.718Z,-3.80
2023-02-07T03:19:17.192Z,-3.82
2023-02-07T03:20:16.728Z,-3.87
2023-02-07T03:21:17.293Z,-3.91
2023-02-07T03:22:16.882Z,-3.91
2023-02-07T03:23:16.366Z,-3.92
2023-02-07T03:24:16.874Z,-3.95
2023-02-07T03:25:16.363Z,-3.98
2023-02-07T03:26:16.838Z,-3.99
2023-02-07T03:27:16.365Z,-3.99
2023-02-07T03:28:16.904Z,-4.02
2023-02-07T03:29:16.448Z,-3.98
2023-02-07T03:30:16.957Z,-3.99
2023-02-07T03:31:16.456Z,-4.02
2023-02-07T03:32:17.225Z,-4.03
2023-02-07T03:33:16.718Z,-4.06
2023-02-07T03:34:17.205Z,-4.12
2023-02-07T03:35:16.714Z,-4.12
2023-02-07T03:36:17.291Z,-4.12
2023-02-07T03:37:16.826Z,-4.15
2023-02-07T03:38:16.312Z,-4.20
2023-02-07T03:39:16.780Z,-4.29
2023-02-07T03:40:17.296Z,-4.29
2023-02-07T03:41:16.797Z,-4.30
2023-02-07T03:42:16.933Z,-4.25
2023-02-07T03:43:16.467Z,-4.29
2023-02-07T03:44:16.979Z,-4.30
2023-02-07T03:45:16.473Z,-4.34
2023-02-07T03:46:17.009Z,-4.36
2023-02-07T03:47:16.573Z,-4.38
2023-02-07T03:48:17.048Z,-4.38
2023-02-07T03:49:16.538Z,-4.36
2023-02-07T03:50:17.069Z,-4.36
2023-02-07T03:51:16.563Z,-4.36
2023-02-07T03:52:17.152Z,-4.43
2023-02-07T03:53:16.674Z,-4.51
2023-02-07T03:54:17.162Z,-4.60
2023-02-07T03:55:16.687Z,-4.58
2023-02-07T03:56:17.194Z,-4.61
2023-02-07T03:57:17.064Z,-4.61
2023-02-07T03:58:16.548Z,-4.64
2023-02-07T03:59:17.041Z,-4.65
2023-02-07T04:00:16.520Z,-4.61
2023-02-07T04:01:17.051Z,-4.58
2023-02-07T04:02:16.680Z,-4.65
2023-02-07T04:03:17.246Z,-4.71
2023-02-07T04:04:17.165Z,-4.71
2023-02-07T04:05:16.660Z,-4.79
2023-02-07T04:06:17.199Z,-4.92
2023-02-07T04:07:16.689Z,-4.99
2023-02-07T04:08:17.204Z,-5.03
2023-02-07T04:09:16.687Z,-4.99
2023-02-07T04:10:17.210Z,-5.01
2023-02-07T04:11:16.728Z,-5.01
2023-02-07T04:12:16.877Z,-4.99
2023-02-07T04:13:16.388Z,-4.99
2023-02-07T04:14:17.168Z,-4.97
2023-02-07T04:15:16.653Z,-5.00
2023-02-07T04:16:17.188Z,-4.99
2023-02-07T04:17:17.069Z,-4.95
2023-02-07T04:18:16.572Z,-4.93
2023-02-07T04:19:17.095Z,-4.95
2023-02-07T04:20:16.589Z,-4.93
2023-02-07T04:21:17.080Z,-4.93
2023-02-07T04:22:16.672Z,-4.90
2023-02-07T04:23:17.166Z,-4.90
2023-02-07T04:24:16.651Z,-4.92
2023-02-07T04:25:17.140Z,-4.90
2023-02-07T04:26:16.651Z,-4.92
2023-02-07T04:27:17.160Z,-4.88
2023-02-07T04:28:16.718Z,-4.89
2023-02-07T04:29:16.409Z,-4.90
2023-02-07T04:30:16.898Z,-4.89
2023-02-07T04:31:16.487Z,-4.92
2023-02-07T04:32:17.077Z,-4.93
2023-02-07T04:33:16.618Z,-4.95
2023-02-07T04:34:17.126Z,-4.96
2023-02-07T04:35:16.658Z,-4.93
2023-02-07T04:36:17.160Z,-4.95
2023-02-07T04:37:16.651Z,-4.96
2023-02-07T04:38:17.154Z,-4.96
2023-02-07T04:39:16.641Z,-4.96
2023-02-07T04:40:17.134Z,-4.96
2023-02-07T04:41:16.620Z,-4.97
2023-02-07T04:42:17.044Z,-4.96
2023-02-07T04:43:16.520Z,-4.99
2023-02-07T04:44:17.019Z,-4.97
2023-02-07T04:45:16.539Z,-5.00
2023-02-07T04:46:17.056Z,-5.03
2023-02-07T04:47:16.547Z,-5.03
2023-02-07T04:48:17.061Z,-5.05
2023-02-07T04:49:16.583Z,-5.05
2023-02-07T04:50:17.115Z,-5.10
2023-02-07T04:51:16.624Z,-5.12
2023-02-07T04:52:17.110Z,-5.17
2023-02-07T04:53:16.624Z,-5.23
2023-02-07T04:54:17.131Z,-5.21
2023-02-07T04:55:16.667Z,-5.24
2023-02-07T04:56:17.219Z,-5.17
2023-02-07T04:57:16.738Z,-5.15
2023-02-07T04:58:17.248Z,-5.17
2023-02-07T04:59:16.759Z,-5.17
2023-02-07T05:00:17.270Z,-5.19
2023-02-07T05:01:16.886Z,-5.20
2023-02-07T05:02:17.115Z,-5.21
2023-02-07T05:03:16.648Z,-5.21
2023-02-07T05:04:17.190Z,-5.23
2023-02-07T05:05:16.782Z,-5.20
2023-02-07T05:06:17.296Z,-5.23
2023-02-07T05:07:16.807Z,-5.21
2023-02-07T05:08:17.276Z,-5.23
2023-02-07T05:09:16.773Z,-5.23
2023-02-07T05:10:17.269Z,-5.27
2023-02-07T05:11:16.772Z,-5.26
2023-02-07T05:12:17.149Z,-5.31
2023-02-07T05:13:16.631Z,-5.28
2023-02-07T05:14:17.145Z,-5.27
2023-02-07T05:15:16.644Z,-5.28
2023-02-07T05:16:17.133Z,-5.31
2023-02-07T05:17:16.664Z,-5.31
2023-02-07T05:18:17.164Z,-5.33
2023-02-07T05:19:16.643Z,-5.33
2023-02-07T05:20:17.151Z,-5.34
2023-02-07T05:21:16.645Z,-5.26
2023-02-07T05:22:17.092Z,-5.30
2023-02-07T05:23:16.583Z,-5.26
2023-02-07T05:24:17.119Z,-5.19
2023-02-07T05:25:16.597Z,-5.17
2023-02-07T05:26:17.142Z,-5.24
2023-02-07T05:27:16.659Z,-5.26
2023-02-07T05:28:17.194Z,-5.30
2023-02-07T05:29:16.822Z,-5.30
2023-02-07T05:30:16.339Z,-5.30
2023-02-07T05:31:16.927Z,-5.33
2023-02-07T05:32:16.462Z,-5.34
2023-02-07T05:33:16.954Z,-5.34
2023-02-07T05:34:16.441Z,-5.38
2023-02-07T05:35:16.956Z,-5.40
2023-02-07T05:36:16.426Z,-5.44
2023-02-07T05:37:16.915Z,-5.41
2023-02-07T05:38:16.448Z,-5.40
2023-02-07T05:39:17.035Z,-5.40
2023-02-07T05:40:16.559Z,-5.45
2023-02-07T05:41:17.052Z,-5.50
2023-02-07T05:42:16.452Z,-5.52
2023-02-07T05:43:16.979Z,-5.54
2023-02-07T05:44:16.486Z,-5.52
2023-02-07T05:45:16.993Z,-5.54
2023-02-07T05:46:16.537Z,-5.55
2023-02-07T05:47:17.121Z,-5.55
2023-02-07T05:48:16.586Z,-5.58
2023-02-07T05:49:17.094Z,-5.48
2023-02-07T05:50:16.634Z,-5.48
2023-02-07T05:51:17.154Z,-5.48
2023-02-07T05:52:16.432Z,-5.44
2023-02-07T05:53:16.952Z,-5.38
2023-02-07T05:54:16.457Z,-5.43
2023-02-07T05:55:16.948Z,-5.47
2023-02-07T05:56:16.436Z,-5.51
2023-02-07T05:57:16.934Z,-5.52
2023-02-07T05:58:16.421Z,-5.54
2023-02-07T05:59:16.940Z,-5.54
2023-02-07T06:00:16.451Z,-5.54
2023-02-07T06:01:16.922Z,-5.55
2023-02-07T06:02:16.923Z,-5.56
2023-02-07T06:03:16.634Z,-5.56
2023-02-07T06:04:17.201Z,-5.56
2023-02-07T06:05:16.694Z,-5.47
2023-02-07T06:06:17.202Z,-5.52
2023-02-07T06:07:16.701Z,-5.52
2023-02-07T06:08:17.212Z,-5.48
2023-02-07T06:09:16.703Z,-5.47
2023-02-07T06:10:17.174Z,-5.48
2023-02-07T06:11:16.659Z,-5.50
2023-02-07T06:12:16.431Z,-5.52
2023-02-07T06:13:16.892Z,-5.51
2023-02-07T06:14:16.391Z,-5.51
2023-02-07T06:15:16.878Z,-5.51
2023-02-07T06:16:16.452Z,-5.55
2023-02-07T06:17:17.018Z,-5.51
2023-02-07T06:18:16.512Z,-5.52
2023-02-07T06:19:17.015Z,-5.56
2023-02-07T06:20:16.527Z,-5.55
2023-02-07T06:21:17.011Z,-5.54
2023-02-07T06:22:16.414Z,-5.58
2023-02-07T06:23:16.911Z,-5.47
2023-02-07T06:24:16.425Z,-5.43
2023-02-07T06:25:16.921Z,-5.40
2023-02-07T06:26:16.416Z,-5.45
2023-02-07T06:27:16.900Z,-5.45
2023-02-07T06:28:16.482Z,-5.54
2023-02-07T06:29:17.065Z,-5.61
2023-02-07T06:30:16.545Z,-5.63
2023-02-07T06:31:17.120Z,-5.62
2023-02-07T06:32:16.884Z,-5.65
2023-02-07T06:33:16.371Z,-5.68
2023-02-07T06:34:16.856Z,-5.68
2023-02-07T06:35:16.324Z,-5.73
2023-02-07T06:36:16.813Z,-5.73
2023-02-07T06:37:16.295Z,-5.73
2023-02-07T06:38:16.800Z,-5.75
2023-02-07T06:39:16.304Z,-5.72
2023-02-07T06:40:16.800Z,-5.73
2023-02-07T06:41:16.324Z,-5.78
2023-02-07T06:42:16.948Z,-5.78
2023-02-07T06:43:16.458Z,-5.82
2023-02-07T06:44:16.955Z,-5.80
2023-02-07T06:45:16.458Z,-5.80
2023-02-07T06:46:16.974Z,-5.82
2023-02-07T06:47:16.514Z,-5.79
2023-02-07T06:48:17.030Z,-5.76
2023-02-07T06:49:16.555Z,-5.75
2023-02-07T06:50:17.068Z,-5.69
2023-02-07T06:51:16.601Z,-5.72
2023-02-07T06:52:17.168Z,-5.73
2023-02-07T06:53:16.657Z,-5.76
2023-02-07T06:54:17.140Z,-5.78
2023-02-07T06:55:16.673Z,-5.78
2023-02-07T06:56:18.597Z,-5.82
2023-02-07T06:57:17.263Z,-5.82
2023-02-07T06:58:16.781Z,-5.79
2023-02-07T06:59:16.330Z,-5.80
2023-02-07T07:00:16.810Z,-5.80
2023-02-07T07:01:16.425Z,-5.79
2023-02-07T07:02:16.712Z,-5.86
2023-02-07T07:03:17.224Z,-5.83
2023-02-07T07:04:16.930Z,-5.80
2023-02-07T07:05:16.585Z,-5.75
2023-02-07T07:06:17.078Z,-5.72
2023-02-07T07:07:16.566Z,-5.71
2023-02-07T07:08:17.056Z,-5.65
2023-02-07T07:09:16.559Z,-5.63
2023-02-07T07:10:17.130Z,-5.59
2023-02-07T07:11:16.728Z,-5.55
2023-02-07T07:12:17.133Z,-5.51
2023-02-07T07:13:16.673Z,-5.48
2023-02-07T07:14:17.161Z,-5.47
2023-02-07T07:15:16.667Z,-5.44
2023-02-07T07:16:17.315Z,-5.38
2023-02-07T07:17:16.917Z,-5.37
2023-02-07T07:18:16.417Z,-5.34
2023-02-07T07:19:16.893Z,-5.27
2023-02-07T07:20:16.381Z,-5.24
2023-02-07T07:21:16.915Z,-5.24
2023-02-07T07:22:17.520Z,-5.24
2023-02-07T07:23:17.113Z,-5.21
2023-02-07T07:24:16.592Z,-5.20
2023-02-07T07:25:17.096Z,-5.19
2023-02-07T07:26:16.624Z,-5.16
2023-02-07T07:27:17.101Z,-5.13
2023-02-07T07:28:16.616Z,-5.07
2023-02-07T07:29:17.173Z,-5.05
2023-02-07T07:30:16.683Z,-5.01
2023-02-07T07:31:17.254Z,-5.00
2023-02-07T07:32:28.657Z,-5.06
2023-02-07T07:33:16.349Z,-5.06
2023-02-07T07:34:17.204Z,-5.00
2023-02-07T07:35:18.724Z,-4.93
2023-02-07T07:36:17.119Z,-4.86
2023-02-07T07:37:16.595Z,-4.82
2023-02-07T07:38:17.082Z,-4.73
2023-02-07T07:39:16.587Z,-4.71
2023-02-07T07:40:17.079Z,-4.60
2023-02-07T07:41:16.583Z,-4.55
2023-02-07T07:42:17.225Z,-4.51
2023-02-07T07:43:16.702Z,-4.54
2023-02-07T07:44:17.190Z,-4.50
2023-02-07T07:45:16.701Z,-4.37
2023-02-07T07:46:17.248Z,-4.34
2023-02-07T07:47:16.812Z,-4.29
2023-02-07T07:48:16.334Z,-4.19
2023-02-07T07:49:16.936Z,-4.19
2023-02-07T07:50:16.454Z,-4.16
2023-02-07T07:51:16.928Z,-4.12
2023-02-07T07:52:16.447Z,-4.10
2023-02-07T07:53:16.950Z,-4.02
2023-02-07T07:54:16.455Z,-4.06
2023-02-07T07:55:16.957Z,-4.02
2023-02-07T07:56:16.445Z,-4.02
2023-02-07T07:57:16.941Z,-3.81
2023-02-07T07:58:16.442Z,-3.72
2023-02-07T07:59:23.734Z,-3.75
2023-02-07T08:00:16.776Z,-3.75
2023-02-07T08:01:17.321Z,-3.55
2023-02-07T08:02:17.158Z,-3.48
2023-02-07T08:03:16.671Z,-3.46
2023-02-07T08:04:17.206Z,-3.27
2023-02-07T08:05:16.743Z,-3.40
2023-02-07T08:06:17.217Z,-3.39
2023-02-07T08:07:16.728Z,-3.33
2023-02-07T08:08:17.228Z,-3.35
2023-02-07T08:09:16.718Z,-3.20
2023-02-07T08:10:17.219Z,-3.08
2023-02-07T08:11:16.713Z,-2.97
2023-02-07T08:12:17.170Z,-2.84
2023-02-07T08:13:16.673Z,-2.87
2023-02-07T08:14:17.207Z,-2.67
2023-02-07T08:15:16.728Z,-2.59
2023-02-07T08:16:17.248Z,-2.53
2023-02-07T08:17:16.775Z,-2.62
2023-02-07T08:18:17.271Z,-2.53
2023-02-07T08:19:16.765Z,-2.43
2023-02-07T08:20:17.258Z,-2.29
2023-02-07T08:21:16.747Z,-2.19
2023-02-07T08:22:17.198Z,-2.28
2023-02-07T08:23:16.687Z,-2.32
2023-02-07T08:24:17.171Z,-2.32
2023-02-07T08:25:16.643Z,-2.04
2023-02-07T08:26:17.167Z,-1.91
2023-02-07T08:27:16.656Z,-1.70
2023-02-07T08:28:17.285Z,-1.59
2023-02-07T08:29:16.866Z,-1.76
2023-02-07T08:30:16.355Z,-1.69
2023-02-07T08:31:16.994Z,-1.69
2023-02-07T08:32:16.516Z,-1.55
2023-02-07T08:33:17.009Z,-1.45
2023-02-07T08:34:16.501Z,-1.64
2023-02-07T08:35:16.998Z,-2.23
2023-02-07T08:36:16.508Z,-2.05
2023-02-07T08:37:17.030Z,-2.11
2023-02-07T08:38:16.620Z,-1.87
2023-02-07T08:39:17.105Z,-1.79
2023-02-07T08:40:16.626Z,-1.73
2023-02-07T08:41:17.121Z,-1.51
2023-02-07T08:42:16.636Z,-1.45
2023-02-07T08:43:17.123Z,-1.38
2023-02-07T08:44:16.594Z,-1.51
2023-02-07T08:45:17.091Z,-1.06
2023-02-07T08:46:16.700Z,-0.89
2023-02-07T08:47:17.989Z,-0.96
2023-02-07T08:48:17.297Z,-0.77
2023-02-07T08:49:16.815Z,-0.58
2023-02-07T08:50:16.306Z,-0.59
2023-02-07T08:51:16.818Z,-0.51
2023-02-07T08:52:17.273Z,-1.20
2023-02-07T08:53:16.762Z,-0.94
2023-02-07T08:54:17.289Z,-0.73
2023-02-07T08:55:16.774Z,-1.31
2023-02-07T08:56:17.271Z,-0.94
2023-02-07T08:57:16.790Z,-0.68
2023-02-07T08:58:17.291Z,-0.86
2023-02-07T08:59:16.812Z,-0.79
2023-02-07T09:00:17.320Z,-0.54
2023-02-07T09:01:16.981Z,-0.14
2023-02-07T09:02:17.374Z,-0.13
2023-02-07T09:03:16.955Z,0.49
2023-02-07T09:04:16.436Z,0.74
2023-02-07T09:05:16.966Z,1.39
2023-02-07T09:06:16.510Z,1.82
2023-02-07T09:07:17.009Z,2.04
2023-02-07T09:08:16.503Z,2.13
2023-02-07T09:09:17.030Z,2.42
2023-02-07T09:10:16.645Z,2.71
2023-02-07T09:11:17.350Z,2.47
2023-02-07T09:12:16.447Z,2.15
2023-02-07T09:13:16.919Z,2.05
2023-02-07T09:14:16.397Z,1.94
2023-02-07T09:15:16.890Z,2.20
2023-02-07T09:16:16.450Z,2.87
2023-02-07T09:17:16.993Z,2.70
2023-02-07T09:18:16.477Z,2.19
2023-02-07T09:19:16.985Z,2.87
2023-02-07T09:20:16.521Z,2.84
2023-02-07T09:21:17.040Z,3.26
2023-02-07T09:22:16.457Z,3.36
2023-02-07T09:23:16.929Z,2.53
2023-02-07T09:24:16.423Z,2.40
2023-02-07T09:25:16.922Z,2.32
2023-02-07T09:26:16.400Z,2.94
2023-02-07T09:27:16.877Z,2.71
2023-02-07T09:28:16.424Z,2.59
2023-02-07T09:29:17.061Z,3.05
2023-02-07T09:30:16.551Z,2.51
2023-02-07T09:31:17.116Z,2.43
2023-02-07T09:32:16.743Z,2.91
2023-02-07T09:33:17.311Z,3.28
2023-02-07T09:34:16.792Z,3.47
2023-02-07T09:35:17.290Z,3.37
2023-02-07T09:36:18.218Z,3.85
2023-02-07T09:37:16.661Z,3.86
2023-02-07T09:38:17.161Z,3.93
2023-02-07T09:39:16.736Z,3.83
2023-02-07T09:40:17.283Z,2.82
2023-02-07T09:41:16.802Z,2.91
2023-02-07T09:42:16.881Z,2.94
2023-02-07T09:43:16.539Z,3.06
2023-02-07T09:44:16.555Z,3.39
2023-02-07T09:45:16.562Z,3.22
2023-02-07T09:46:17.241Z,3.67
2023-02-07T09:47:16.819Z,3.44
2023-02-07T09:48:16.306Z,3.47
2023-02-07T09:49:16.822Z,3.54
2023-02-07T09:50:17.317Z,3.40
2023-02-07T09:51:17.126Z,3.27
2023-02-07T09:52:17.141Z,3.30
2023-02-07T09:53:16.936Z,3.50
2023-02-07T09:54:16.490Z,3.60
2023-02-07T09:55:17.002Z,2.87
2023-02-07T09:56:16.536Z,3.27
2023-02-07T09:57:17.041Z,3.46
2023-02-07T09:58:16.579Z,3.26
2023-02-07T09:59:17.075Z,3.82
2023-02-07T10:00:16.592Z,4.02
2023-02-07T10:01:17.115Z,3.64
2023-02-07T10:02:16.662Z,3.54
2023-02-07T10:03:17.216Z,3.46
2023-02-07T10:04:16.700Z,3.69
2023-02-07T10:05:17.210Z,4.30
2023-02-07T10:06:18.507Z,3.60
2023-02-07T10:07:16.973Z,3.00
2023-02-07T10:08:16.467Z,2.87
2023-02-07T10:09:16.991Z,3.77
2023-02-07T10:10:16.556Z,4.16
2023-02-07T10:11:17.068Z,4.75
2023-02-07T10:12:16.851Z,4.79
2023-02-07T10:13:16.382Z,4.72
2023-02-07T10:14:17.040Z,4.86
2023-02-07T10:15:16.530Z,5.38
2023-02-07T10:16:17.166Z,5.46
2023-02-07T10:17:29.625Z,5.66
2023-02-07T10:18:17.244Z,5.52
2023-02-07T10:19:16.795Z,5.46
2023-02-07T10:20:17.329Z,5.65
2023-02-07T10:21:16.919Z,6.04
2023-02-07T10:22:16.352Z,6.26
2023-02-07T10:23:16.859Z,6.40
2023-02-07T10:24:16.333Z,6.56
2023-02-07T10:25:16.839Z,6.55
2023-02-07T10:26:16.472Z,6.49
2023-02-07T10:27:17.011Z,6.53
2023-02-07T10:28:16.537Z,6.11
2023-02-07T10:29:17.118Z,6.24
2023-02-07T10:30:16.632Z,6.22
2023-02-07T10:31:17.361Z,5.41
2023-02-07T10:32:16.718Z,5.66
2023-02-07T10:33:17.207Z,5.61
2023-02-07T10:34:16.749Z,5.35
2023-02-07T10:35:17.262Z,5.02
2023-02-07T10:36:16.774Z,5.17
2023-02-07T10:37:17.308Z,5.58
2023-02-07T10:38:16.856Z,5.79
2023-02-07T10:39:16.347Z,5.58
2023-02-07T10:40:16.832Z,5.69
2023-02-07T10:41:16.308Z,5.35
2023-02-07T10:42:17.104Z,4.87
2023-02-07T10:43:16.637Z,4.92
2023-02-07T10:44:17.156Z,5.57
2023-02-07T10:45:16.652Z,5.86
2023-02-07T10:46:17.208Z,5.93
2023-02-07T10:47:16.809Z,5.80
2023-02-07T10:48:16.310Z,6.03
2023-02-07T10:49:17.162Z,6.14
2023-02-07T10:50:24.691Z,6.08
2023-02-07T10:51:16.704Z,6.05
2023-02-07T10:52:16.688Z,6.08
2023-02-07T10:53:17.210Z,6.00
2023-02-07T10:54:16.816Z,6.33
2023-02-07T10:55:16.332Z,6.40
2023-02-07T10:56:16.837Z,6.50
2023-02-07T10:57:16.344Z,6.21
2023-02-07T10:58:22.697Z,5.89
2023-02-07T10:59:16.460Z,5.80
2023-02-07T11:00:16.991Z,5.11
2023-02-07T11:01:16.598Z,4.18
2023-02-07T11:02:17.194Z,4.52
2023-02-07T11:03:16.685Z,4.72
2023-02-07T11:04:17.156Z,5.11
2023-02-07T11:05:16.674Z,5.21
2023-02-07T11:06:17.221Z,5.03
2023-02-07T11:07:16.870Z,5.04
2023-02-07T11:08:16.412Z,4.86
2023-02-07T11:09:16.890Z,4.42
2023-02-07T11:10:16.419Z,4.35
2023-02-07T11:11:16.907Z,4.30
2023-02-07T11:12:16.457Z,4.18
2023-02-07T11:13:17.021Z,4.18
2023-02-07T11:14:16.541Z,3.78
2023-02-07T11:15:17.064Z,3.39
2023-02-07T11:16:16.627Z,3.53
2023-02-07T11:17:17.202Z,3.09
2023-02-07T11:18:16.701Z,3.28
2023-02-07T11:19:17.256Z,2.89
2023-02-07T11:20:16.768Z,2.50
2023-02-07T11:21:17.331Z,2.57
2023-02-07T11:22:17.271Z,2.78
2023-02-07T11:23:16.852Z,2.98
2023-02-07T11:24:16.359Z,3.36
2023-02-07T11:25:16.912Z,3.69
2023-02-07T11:26:16.487Z,3.33
2023-02-07T11:27:17.015Z,2.79
2023-02-07T11:28:16.618Z,2.63
2023-02-07T11:29:17.193Z,2.70
2023-02-07T11:30:16.679Z,2.72
2023-02-07T11:31:17.358Z,2.67
2023-02-07T11:32:17.091Z,2.78
2023-02-07T11:33:16.567Z,2.77
2023-02-07T11:34:17.069Z,2.96
2023-02-07T11:35:16.553Z,2.95
2023-02-07T11:36:17.047Z,3.05
2023-02-07T11:37:16.604Z,3.22
2023-02-07T11:38:17.148Z,3.05
2023-02-07T11:39:16.641Z,3.05
2023-02-07T11:40:17.185Z,2.99
2023-02-07T11:41:16.820Z,2.94
2023-02-07T11:42:17.139Z,2.94
2023-02-07T11:43:16.650Z,2.99
2023-02-07T11:44:17.145Z,3.20
2023-02-07T11:45:16.637Z,2.79
2023-02-07T11:46:17.159Z,2.72
2023-02-07T11:47:16.780Z,2.54
2023-02-07T11:48:17.279Z,2.70
2023-02-07T11:49:16.768Z,2.79
2023-02-07T11:50:17.319Z,2.77
2023-02-07T11:51:17.025Z,2.64
2023-02-07T11:52:16.853Z,2.72
2023-02-07T11:53:16.345Z,2.70
2023-02-07T11:54:16.840Z,2.87
2023-02-07T11:55:16.583Z,2.98
2023-02-07T11:56:17.088Z,3.07
2023-02-07T11:57:16.580Z,3.10
2023-02-07T11:58:17.118Z,3.10
2023-02-07T11:59:16.620Z,3.00
2023-02-07T12:00:17.329Z,2.91
2023-02-07T12:01:16.978Z,2.92
2023-02-07T12:02:16.505Z,2.92
2023-02-07T12:03:17.158Z,2.85
2023-02-07T12:04:16.669Z,2.72
2023-02-07T12:05:17.220Z,2.49
2023-02-07T12:06:16.789Z,2.43
2023-02-07T12:07:17.285Z,2.57
2023-02-07T12:08:16.801Z,2.75
2023-02-07T12:09:17.280Z,2.75
2023-02-07T12:10:16.992Z,2.81
2023-02-07T12:11:16.560Z,2.84
2023-02-07T12:12:17.089Z,2.67
2023-02-07T12:13:16.597Z,2.67
2023-02-07T12:14:17.103Z,2.68
2023-02-07T12:15:16.610Z,2.71
2023-02-07T12:16:17.145Z,2.71
2023-02-07T12:17:16.786Z,2.78
2023-02-07T12:18:16.326Z,2.81
2023-02-07T12:19:16.806Z,2.78
2023-02-07T12:20:17.294Z,2.82
2023-02-07T12:21:16.856Z,2.59
2023-02-07T12:22:16.744Z,2.56
2023-02-07T12:23:40.656Z,2.53
2023-02-07T12:24:16.742Z,2.61
2023-02-07T12:25:17.272Z,2.68
2023-02-07T12:26:16.813Z,2.67
2023-02-07T12:27:16.326Z,2.72
2023-02-07T12:28:16.858Z,2.59
2023-02-07T12:29:16.448Z,2.61
2023-02-07T12:30:16.936Z,2.47
2023-02-07T12:31:16.539Z,2.53
2023-02-07T12:32:17.061Z,2.46
2023-02-07T12:33:16.699Z,2.42
2023-02-07T12:34:17.193Z,2.42
2023-02-07T12:35:16.713Z,2.36
2023-02-07T12:36:17.291Z,2.34
2023-02-07T12:37:16.779Z,2.32
2023-02-07T12:38:17.281Z,2.32
2023-02-07T12:39:16.762Z,2.36
2023-02-07T12:40:17.268Z,2.37
2023-02-07T12:41:16.749Z,2.39
2023-02-07T12:42:16.504Z,2.36
2023-02-07T12:43:16.975Z,2.39
2023-02-07T12:44:16.470Z,2.40
2023-02-07T12:45:16.954Z,2.37
2023-02-07T12:46:16.492Z,2.37
2023-02-07T12:47:16.977Z,2.39
2023-02-07T12:48:16.542Z,2.33
2023-02-07T12:49:17.062Z,2.33
2023-02-07T12:50:16.590Z,2.34
2023-02-07T12:51:17.156Z,2.34
2023-02-07T12:52:16.592Z,2.43
2023-02-07T12:53:17.064Z,2.50
2023-02-07T12:54:16.557Z,2.49
2023-02-07T12:55:17.052Z,2.33
2023-02-07T12:56:16.541Z,2.32
2023-02-07T12:57:17.068Z,2.33
2023-02-07T12:58:16.571Z,2.34
2023-02-07T12:59:17.083Z,2.37
2023-02-07T13:00:16.599Z,2.36